Time;durP1;ratioP1;P1;durP2;ratioP2;P2;SDS_P1;SDS_P2;PMS_P1;PMS_P2;Temp;Humidity;BMP_temperature;BMP_pressure;BME280_temperature;BME280_humidity;BME280_pressure;Samples;Min_cycle;Max_cycle;Signal;HPM_P1;HPM_P2
2022/07/01 07:32:32;;;;;;;1.73;0.43;;;24.60;99.60;;;;;;4896316;29;20269;-71
2022/07/01 07:34:58;;;;;;;2.47;0.45;;;24.40;99.90;;;;;;4899035;29;20670;-71
2022/07/01 07:37:25;;;;;;;1.55;0.65;;;24.20;99.90;;;;;;4898695;29;20258;-71
2022/07/01 07:39:52;;;;;;;1.60;0.50;;;24.70;99.90;;;;;;4899218;29;20214;-73
2022/07/01 07:42:19;;;;;;;0.55;0.35;;;25.50;99.90;;;;;;4900384;29;20207;-71
2022/07/01 07:44:46;;;;;;;2.92;0.47;;;25.80;98.50;;;;;;4900108;29;20210;-72
2022/07/01 07:47:12;;;;;;;3.25;0.68;;;26.00;98.50;;;;;;4900056;29;20258;-75
2022/07/01 07:49:40;;;;;;;1.08;0.50;;;26.10;98.70;;;;;;4900146;29;20206;-74
2022/07/01 07:52:07;;;;;;;1.17;0.50;;;26.60;98.90;;;;;;4900385;29;20309;-76
2022/07/01 07:54:34;;;;;;;2.95;0.40;;;26.10;97.00;;;;;;4900287;29;20218;-76
2022/07/01 07:57:01;;;;;;;2.20;0.45;;;25.70;98.00;;;;;;4900377;29;20245;-72
2022/07/01 07:59:28;;;;;;;3.08;0.40;;;25.60;96.60;;;;;;4899760;29;20215;-77
2022/07/01 08:01:55;;;;;;;1.10;0.40;;;26.00;98.50;;;;;;4899798;29;20206;-72
2022/07/01 08:04:22;;;;;;;3.30;0.43;;;26.20;97.90;;;;;;4899562;29;20215;-71
2022/07/01 08:06:50;;;;;;;1.35;0.35;;;26.40;97.30;;;;;;4899787;29;20240;-71
2022/07/01 08:09:18;;;;;;;1.48;0.50;;;26.80;95.70;;;;;;4899870;29;20217;-72
2022/07/01 08:11:45;;;;;;;1.33;0.20;;;26.70;95.60;;;;;;4899557;29;20214;-71
2022/07/01 08:14:12;;;;;;;1.13;0.30;;;26.00;95.60;;;;;;4899170;29;20210;-72
2022/07/01 08:16:39;;;;;;;1.48;0.50;;;24.60;99.30;;;;;;4898577;29;20250;-71
2022/07/01 08:19:06;;;;;;;1.40;0.32;;;23.60;99.90;;;;;;4899315;29;20222;-72
2022/07/01 08:21:32;;;;;;;2.97;0.40;;;23.00;99.90;;;;;;4899537;29;20289;-71
2022/07/01 08:24:01;;;;;;;2.17;0.30;;;23.50;99.90;;;;;;4899279;29;20214;-71
2022/07/01 08:26:28;;;;;;;1.05;0.30;;;24.20;99.90;;;;;;4899338;29;20235;-73
2022/07/01 08:28:54;;;;;;;5.68;0.40;;;24.50;98.90;;;;;;4899066;29;20206;-72
2022/07/01 08:31:21;;;;;;;0.63;0.30;;;25.20;99.10;;;;;;4898930;29;20218;-74
2022/07/01 08:33:48;;;;;;;0.60;0.30;;;25.60;97.20;;;;;;4899231;29;20535;-75
2022/07/01 08:36:15;;;;;;;1.90;0.32;;;25.50;97.50;;;;;;4899415;29;20222;-73
2022/07/01 08:38:42;;;;;;;3.13;0.40;;;26.00;97.50;;;;;;4898979;29;20670;-72
2022/07/01 08:41:10;;;;;;;1.27;0.40;;;26.40;97.50;;;;;;4899230;29;20217;-75
2022/07/01 08:43:38;;;;;;;1.58;0.47;;;27.00;97.00;;;;;;4898766;29;20210;-72
2022/07/01 08:46:05;;;;;;;0.68;0.30;;;26.00;96.80;;;;;;4898829;29;20242;-76
2022/07/01 08:48:31;;;;;;;1.15;0.30;;;26.30;97.10;;;;;;4899177;29;20220;-72
2022/07/01 08:50:59;;;;;;;0.85;0.30;;;26.50;97.10;;;;;;4898951;29;20207;-73
2022/07/01 08:53:26;;;;;;;0.63;0.32;;;25.80;97.50;;;;;;4898863;29;20262;-75
2022/07/01 08:58:38;;;;;;;2.50;0.30;;;25.20;96.40;;;;;;4898461;29;20237;-72
2022/07/01 09:01:16;;;;;;;1.08;0.30;;;24.00;98.20;;;;;;4888135;29;20226;-74
2022/07/01 09:03:44;;;;;;;1.38;0.40;;;23.20;99.40;;;;;;4886862;29;20206;-71
2022/07/01 09:06:17;;;;;;;1.92;0.30;;;23.10;99.90;;;;;;4887541;29;20229;-71
2022/07/01 09:08:44;;;;;;;1.33;0.30;;;22.90;99.90;;;;;;4888719;29;20202;-71
2022/07/01 09:11:13;;;;;;;0.82;0.40;;;22.80;99.90;;;;;;4887956;29;20237;-71
2022/07/01 09:13:41;;;;;;;3.05;0.63;;;22.80;99.90;;;;;;4886187;29;20295;-76
2022/07/01 09:16:18;;;;;;;1.75;0.28;;;22.60;99.90;;;;;;4879081;29;20239;-71
2022/07/01 09:19:03;;;;;;;2.42;0.38;;;22.30;99.90;;;;;;4879319;29;20242;-73
2022/07/01 09:21:31;;;;;;;2.95;0.43;;;21.90;99.90;;;;;;4879379;29;20215;-73
2022/07/01 09:23:59;;;;;;;1.40;0.38;;;21.80;99.90;;;;;;4879618;29;20302;-74
2022/07/01 09:26:27;;;;;;;1.45;0.52;;;22.30;99.90;;;;;;4879683;29;20227;-72
2022/07/01 09:28:56;;;;;;;1.42;0.45;;;22.30;99.90;;;;;;4879594;29;20218;-72
2022/07/01 09:31:23;;;;;;;1.85;0.50;;;22.00;99.90;;;;;;4879176;29;20226;-73
2022/07/01 09:34:04;;;;;;;1.77;0.40;;;22.00;99.90;;;;;;4881976;29;20211;-73
2022/07/01 09:36:31;;;;;;;1.95;1.20;;;21.70;99.90;;;;;;4891199;29;20230;-72
2022/07/01 09:39:02;;;;;;;0.65;0.38;;;21.80;99.90;;;;;;4891198;29;20206;-72
2022/07/01 09:41:36;;;;;;;3.47;0.70;;;21.70;99.90;;;;;;4890095;29;20210;-70
2022/07/01 09:44:07;;;;;;;0.90;0.45;;;21.30;99.90;;;;;;4891155;29;20213;-74
2022/07/01 09:46:33;;;;;;;3.60;0.50;;;21.60;99.90;;;;;;4891544;29;20232;-75
2022/07/01 09:49:01;;;;;;;1.85;0.57;;;21.30;99.90;;;;;;4891953;29;20323;-74
2022/07/01 09:51:29;;;;;;;2.22;0.60;;;21.00;99.90;;;;;;4888319;29;20215;-71
2022/07/01 09:53:56;;;;;;;1.67;0.60;;;20.50;99.90;;;;;;4893154;29;20211;-74
2022/07/01 09:56:23;;;;;;;1.35;0.50;;;20.50;99.90;;;;;;4891058;29;20230;-72
2022/07/01 09:58:50;;;;;;;2.63;0.50;;;20.40;99.90;;;;;;4892048;29;20245;-69
2022/07/01 10:01:19;;;;;;;1.10;0.40;;;20.50;99.90;;;;;;4888751;29;20218;-70
2022/07/01 10:03:46;;;;;;;1.33;0.45;;;20.30;99.90;;;;;;4890876;29;20211;-70
2022/07/01 10:06:29;;;;;;;0.60;0.50;;;20.30;99.90;;;;;;4895040;29;20342;-72
2022/07/01 10:09:08;;;;;;;0.95;0.57;;;20.90;99.90;;;;;;4891616;29;20217;-71
2022/07/01 10:11:53;;;;;;;1.35;0.63;;;22.10;99.90;;;;;;4890796;29;20681;-72
2022/07/01 10:14:21;;;;;;;3.05;0.60;;;22.60;99.90;;;;;;4894693;29;20210;-71
2022/07/01 10:16:50;;;;;;;2.35;0.77;;;22.30;99.90;;;;;;4888898;29;20238;-74
2022/07/01 10:19:27;;;;;;;1.00;0.70;;;22.00;99.90;;;;;;4890400;29;20210;-71
2022/07/01 10:21:56;;;;;;;1.65;0.65;;;21.90;99.90;;;;;;4890852;29;20220;-74
2022/07/01 10:24:25;;;;;;;0.70;0.50;;;22.00;99.90;;;;;;4887596;29;20215;-70
2022/07/01 10:26:53;;;;;;;1.35;0.70;;;21.70;99.90;;;;;;4888934;29;20290;-70
2022/07/01 10:29:33;;;;;;;1.42;0.77;;;21.60;99.90;;;;;;4892998;29;20605;-71
2022/07/01 10:32:11;;;;;;;1.45;0.50;;;21.50;99.90;;;;;;4894416;29;20244;-71
2022/07/01 10:34:40;;;;;;;1.35;0.57;;;21.40;99.90;;;;;;4891420;29;20218;-71
2022/07/01 10:37:09;;;;;;;1.98;0.60;;;21.30;99.90;;;;;;4887131;29;20457;-71
2022/07/01 10:39:58;;;;;;;0.80;0.50;;;21.30;99.90;;;;;;4896311;29;20266;-72
2022/07/01 10:42:30;;;;;;;2.53;0.55;;;21.50;99.90;;;;;;4894399;29;20301;-71
2022/07/01 10:45:11;;;;;;;0.68;0.50;;;21.40;99.90;;;;;;4892731;29;20206;-68
2022/07/01 10:47:41;;;;;;;2.50;0.60;;;21.30;99.90;;;;;;4885690;29;20231;-72
2022/07/01 10:50:11;;;;;;;2.58;0.60;;;21.20;99.90;;;;;;4884557;29;20207;-70
2022/07/01 10:52:38;;;;;;;1.70;0.70;;;21.20;99.90;;;;;;4899035;29;20300;-69
2022/07/01 10:55:07;;;;;;;0.82;0.40;;;21.30;99.90;;;;;;4891041;29;20297;-71
2022/07/01 10:57:38;;;;;;;0.82;0.40;;;21.50;99.90;;;;;;4891968;29;20243;-72
2022/07/01 11:00:31;;;;;;;1.58;0.55;;;21.70;99.90;;;;;;4896810;29;20302;-69
2022/07/01 11:03:16;;;;;;;1.15;0.38;;;22.00;99.90;;;;;;4895317;29;20639;-71
2022/07/01 11:05:45;;;;;;;2.80;0.50;;;22.10;99.90;;;;;;4894305;29;20236;-69
2022/07/01 11:08:12;;;;;;;1.40;0.50;;;22.20;99.90;;;;;;4896186;29;20214;-69
2022/07/01 11:10:40;;;;;;;0.30;0.25;;;22.20;99.50;;;;;;4895079;29;20218;-69
2022/07/01 11:13:08;;;;;;;0.63;0.40;;;22.00;99.50;;;;;;4899397;29;20210;-69
2022/07/01 11:15:35;;;;;;;0.73;0.50;;;22.00;99.90;;;;;;4894847;29;20293;-68
2022/07/01 11:18:03;;;;;;;0.40;0.30;;;22.30;99.90;;;;;;4893167;29;20600;-69
2022/07/01 11:20:33;;;;;;;0.63;0.50;;;22.40;99.90;;;;;;4892021;29;20214;-70
2022/07/01 11:23:00;;;;;;;2.22;0.40;;;22.40;98.90;;;;;;4886583;29;20207;-71
2022/07/01 11:25:27;;;;;;;0.77;0.50;;;22.40;99.90;;;;;;4892977;29;20229;-68
2022/07/01 11:27:54;;;;;;;1.52;0.40;;;22.40;98.80;;;;;;4894770;29;20716;-69
2022/07/01 11:30:22;;;;;;;2.90;0.55;;;22.30;99.30;;;;;;4894203;29;20229;-70
2022/07/01 11:32:51;;;;;;;2.67;0.40;;;22.20;99.10;;;;;;4893350;29;20215;-68
2022/07/01 11:40:53;;;;;;;0.90;0.47;;;22.40;99.90;;;;;;4892814;29;20245;-67
2022/07/01 11:43:24;;;;;;;1.20;0.32;;;22.50;98.90;;;;;;4891823;29;20215;-67
2022/07/01 11:45:51;;;;;;;1.85;0.60;;;22.40;98.30;;;;;;4896677;29;20297;-68
2022/07/01 11:48:36;;;;;;;0.95;0.50;;;21.90;98.40;;;;;;4891557;29;20211;-71
2022/07/01 11:51:11;;;;;;;0.70;0.45;;;21.90;99.30;;;;;;4891786;29;20565;-72
2022/07/01 11:53:41;;;;;;;1.30;0.38;;;21.90;99.60;;;;;;4890757;29;20213;-68
2022/07/01 11:56:08;;;;;;;0.85;0.30;;;21.80;99.00;;;;;;4889285;29;20227;-76
2022/07/01 11:58:43;;;;;;;0.30;0.30;;;21.90;98.40;;;;;;4890604;29;20238;-71
2022/07/01 12:01:10;;;;;;;1.45;0.95;;;22.00;98.30;;;;;;4894384;29;20202;-69
2022/07/01 12:03:37;;;;;;;0.38;0.30;;;22.00;97.50;;;;;;4893713;29;20210;-72
2022/07/01 12:06:05;;;;;;;1.20;0.35;;;22.00;97.30;;;;;;4893284;29;20230;-68
2022/07/01 12:08:32;;;;;;;0.40;0.40;;;22.20;97.20;;;;;;4889745;29;20214;-71
2022/07/01 12:11:00;;;;;;;2.08;0.50;;;22.60;97.70;;;;;;4894252;29;20214;-72
2022/07/01 12:13:28;;;;;;;0.50;0.20;;;22.70;95.70;;;;;;4892179;29;20214;-71
2022/07/01 12:16:07;;;;;;;1.85;0.40;;;22.70;95.70;;;;;;4895587;29;20550;-71
2022/07/01 12:18:34;;;;;;;1.75;0.40;;;22.40;96.20;;;;;;4892433;29;20237;-71
2022/07/01 12:21:01;;;;;;;1.33;0.30;;;22.70;95.90;;;;;;4895514;29;20244;-71
2022/07/01 12:23:28;;;;;;;0.60;0.30;;;22.80;96.60;;;;;;4883856;29;20577;-71
2022/07/01 12:25:55;;;;;;;0.50;0.20;;;22.80;95.80;;;;;;4890091;29;20234;-70
2022/07/01 12:28:32;;;;;;;0.52;0.28;;;22.90;95.30;;;;;;4887441;29;20227;-69
2022/07/01 12:31:06;;;;;;;0.32;0.20;;;23.10;96.00;;;;;;4892727;29;20300;-70
2022/07/01 12:33:33;;;;;;;0.20;0.20;;;23.30;96.90;;;;;;4880455;29;20215;-71
2022/07/01 12:36:03;;;;;;;0.85;0.30;;;23.40;95.20;;;;;;4883217;29;20709;-69
2022/07/01 12:38:30;;;;;;;1.17;0.30;;;23.30;96.70;;;;;;4896655;29;20241;-70
2022/07/01 12:40:57;;;;;;;1.73;0.30;;;23.20;95.70;;;;;;4897270;29;20210;-69
2022/07/01 12:43:28;;;;;;;0.52;0.25;;;23.20;95.10;;;;;;4897730;29;20210;-69
2022/07/01 12:45:58;;;;;;;1.27;0.20;;;23.10;94.50;;;;;;4897047;29;20236;-70
2022/07/01 12:48:25;;;;;;;1.60;0.45;;;22.90;94.50;;;;;;4897416;29;20210;-68
2022/07/01 12:50:57;;;;;;;0.50;0.20;;;22.80;94.70;;;;;;4886964;29;20211;-71
2022/07/01 12:53:25;;;;;;;1.27;0.38;;;22.90;95.70;;;;;;4878690;29;20239;-70
2022/07/01 12:55:54;;;;;;;1.02;0.30;;;22.80;95.30;;;;;;4881196;29;20543;-70
2022/07/01 12:58:23;;;;;;;3.33;0.40;;;22.60;94.70;;;;;;4898546;29;20234;-69
2022/07/01 13:00:52;;;;;;;1.10;0.30;;;22.80;95.30;;;;;;4898403;29;20212;-69
2022/07/01 13:03:23;;;;;;;0.90;0.25;;;23.10;93.50;;;;;;4898338;29;20216;-69
2022/07/01 13:05:51;;;;;;;0.40;0.17;;;23.00;91.80;;;;;;4898229;29;20210;-69
2022/07/01 13:08:18;;;;;;;0.30;0.20;;;22.90;94.20;;;;;;4898400;29;20214;-69
2022/07/01 13:10:47;;;;;;;1.23;0.30;;;23.00;93.00;;;;;;4898531;29;20752;-69
2022/07/01 13:13:14;;;;;;;1.95;0.30;;;23.20;93.60;;;;;;4898387;29;20221;-69
2022/07/01 13:15:41;;;;;;;1.10;0.30;;;23.40;93.40;;;;;;4898440;29;20219;-69
2022/07/01 13:18:09;;;;;;;1.95;0.30;;;23.60;93.40;;;;;;4898294;29;20234;-69
2022/07/01 13:20:40;;;;;;;0.30;0.20;;;23.50;93.90;;;;;;4898480;29;20217;-69
2022/07/01 13:23:06;;;;;;;1.70;0.30;;;23.30;92.80;;;;;;4897877;29;20353;-70
2022/07/01 13:25:33;;;;;;;0.50;0.30;;;23.40;93.60;;;;;;4898258;29;20214;-69
2022/07/01 13:28:00;;;;;;;0.47;0.20;;;23.70;93.80;;;;;;4898342;29;20580;-70
2022/07/01 13:30:27;;;;;;;0.85;0.30;;;23.90;93.10;;;;;;4898912;29;20657;-70
2022/07/01 13:32:54;;;;;;;0.93;0.40;;;23.50;93.60;;;;;;4898035;29;20210;-69
2022/07/01 13:35:23;;;;;;;0.25;0.20;;;23.50;93.30;;;;;;4898127;29;20220;-69
2022/07/01 13:37:52;;;;;;;0.57;0.28;;;23.30;93.20;;;;;;4897821;29;20234;-69
2022/07/01 13:40:19;;;;;;;0.45;0.20;;;23.20;92.70;;;;;;4898396;29;20221;-69
2022/07/01 13:42:46;;;;;;;0.40;0.15;;;23.30;93.10;;;;;;4898117;29;20210;-69
2022/07/01 13:45:14;;;;;;;0.30;0.20;;;23.30;92.70;;;;;;4898043;29;20210;-69
2022/07/01 13:47:40;;;;;;;1.85;0.20;;;23.50;94.10;;;;;;4897640;29;20283;-69
2022/07/01 13:50:08;;;;;;;1.45;0.38;;;23.70;92.90;;;;;;4897630;29;20217;-69
2022/07/01 13:52:35;;;;;;;1.45;0.30;;;23.80;93.10;;;;;;4897970;29;20757;-69
2022/07/01 13:55:04;;;;;;;0.38;0.30;;;23.70;91.80;;;;;;4898139;29;20318;-70
2022/07/01 13:57:31;;;;;;;0.40;0.20;;;23.90;93.70;;;;;;4897989;29;20230;-69
2022/07/01 13:59:58;;;;;;;0.68;0.30;;;23.90;93.00;;;;;;4897934;29;20333;-69
2022/07/01 14:02:25;;;;;;;0.93;0.50;;;23.70;92.70;;;;;;4897759;29;20210;-69
2022/07/01 14:04:51;;;;;;;1.88;0.30;;;23.40;94.00;;;;;;4897948;29;20676;-69
2022/07/01 14:07:18;;;;;;;0.43;0.20;;;23.50;93.90;;;;;;4897572;29;20234;-69
2022/07/01 14:09:46;;;;;;;1.92;0.30;;;23.50;93.20;;;;;;4897730;29;20547;-69
2022/07/01 14:12:16;;;;;;;1.75;0.30;;;23.40;92.90;;;;;;4897706;29;20210;-69
2022/07/01 14:14:43;;;;;;;1.85;0.20;;;23.40;92.90;;;;;;4900633;29;20234;-69
2022/07/01 14:17:10;;;;;;;0.90;0.25;;;23.00;94.50;;;;;;4901349;29;20321;-69
2022/07/01 14:19:37;;;;;;;0.50;0.20;;;23.00;94.40;;;;;;4901431;29;20238;-69
2022/07/01 14:22:05;;;;;;;0.40;0.28;;;22.90;94.60;;;;;;4901829;29;20210;-69
2022/07/01 14:24:32;;;;;;;0.55;0.20;;;22.70;94.20;;;;;;4901476;29;20226;-69
2022/07/01 14:26:58;;;;;;;1.58;0.38;;;22.70;94.60;;;;;;4901197;29;20234;-69
2022/07/01 14:29:28;;;;;;;3.25;0.22;;;22.60;94.60;;;;;;4901564;29;20210;-71
2022/07/01 14:31:55;;;;;;;0.57;0.22;;;22.70;95.40;;;;;;4900930;29;20301;-70
2022/07/01 14:34:22;;;;;;;0.77;0.30;;;22.50;94.10;;;;;;4901144;29;20214;-71
2022/07/01 14:36:49;;;;;;;0.55;0.20;;;22.30;93.40;;;;;;4900975;29;20234;-71
2022/07/01 14:39:16;;;;;;;1.23;0.30;;;22.10;93.90;;;;;;4900996;29;20238;-72
2022/07/01 14:41:42;;;;;;;2.50;0.30;;;22.20;94.10;;;;;;4901228;29;20309;-72
2022/07/01 14:44:09;;;;;;;1.85;0.20;;;22.30;94.30;;;;;;4901145;29;20213;-72
2022/07/01 14:46:37;;;;;;;0.73;0.25;;;22.20;94.10;;;;;;4900922;29;20600;-69
2022/07/01 14:49:04;;;;;;;0.60;0.30;;;22.40;94.60;;;;;;4901123;29;20688;-69
2022/07/01 14:51:31;;;;;;;1.98;0.30;;;22.60;94.10;;;;;;4900999;29;20768;-69
2022/07/01 14:53:58;;;;;;;1.23;0.20;;;22.60;94.80;;;;;;4900897;29;20249;-72
2022/07/01 14:56:25;;;;;;;3.47;0.38;;;22.80;94.00;;;;;;4900700;29;20227;-72
2022/07/01 14:58:52;;;;;;;0.63;0.28;;;23.20;94.60;;;;;;4900792;29;20325;-70
2022/07/01 15:01:19;;;;;;;1.00;0.20;;;23.40;94.10;;;;;;4900701;29;20240;-72
2022/07/01 15:03:47;;;;;;;0.75;0.30;;;23.50;93.00;;;;;;4900849;29;20210;-72
2022/07/01 15:06:14;;;;;;;0.68;0.20;;;23.60;93.30;;;;;;4900885;29;20325;-71
2022/07/01 15:08:42;;;;;;;0.80;0.30;;;23.40;93.00;;;;;;4900858;29;20226;-71
2022/07/01 15:11:09;;;;;;;1.55;0.43;;;23.30;93.10;;;;;;4900692;29;20238;-71
2022/07/01 15:13:37;;;;;;;1.40;0.38;;;23.40;94.60;;;;;;4900456;29;20214;-71
2022/07/01 15:16:04;;;;;;;2.28;0.20;;;23.40;93.90;;;;;;4900593;29;20238;-72
2022/07/01 15:18:32;;;;;;;0.88;0.35;;;23.40;94.10;;;;;;4900559;29;20221;-70
2022/07/01 15:21:01;;;;;;;1.25;0.40;;;23.20;94.50;;;;;;4900390;29;20216;-71
2022/07/01 15:23:29;;;;;;;1.40;0.68;;;23.20;94.40;;;;;;4900426;29;20301;-71
2022/07/01 15:25:56;;;;;;;0.77;0.20;;;23.00;94.50;;;;;;4900201;29;20298;-72
2022/07/01 15:28:24;;;;;;;1.48;0.50;;;23.20;95.50;;;;;;4900316;29;20586;-72
2022/07/01 15:30:51;;;;;;;0.80;0.30;;;23.30;94.60;;;;;;4900411;29;20218;-71
2022/07/01 15:33:18;;;;;;;0.88;0.50;;;23.40;94.50;;;;;;4899984;29;20304;-70
2022/07/01 15:35:45;;;;;;;2.30;0.25;;;23.20;95.20;;;;;;4899792;29;20681;-72
2022/07/01 15:38:13;;;;;;;0.88;0.40;;;23.10;95.20;;;;;;4899931;29;20214;-71
2022/07/01 15:40:40;;;;;;;0.80;0.28;;;22.90;95.80;;;;;;4900057;29;20242;-70
2022/07/01 15:43:08;;;;;;;1.75;0.40;;;22.90;96.20;;;;;;4900011;29;20216;-70
2022/07/01 15:45:38;;;;;;;1.67;0.65;;;22.90;96.00;;;;;;4900287;29;20214;-70
2022/07/01 15:48:09;;;;;;;3.10;0.30;;;22.90;95.90;;;;;;4899919;29;20293;-72
2022/07/01 15:50:37;;;;;;;0.73;0.20;;;22.80;96.50;;;;;;4900023;29;20210;-69
2022/07/01 15:53:04;;;;;;;1.77;0.30;;;23.00;96.70;;;;;;4899772;29;20673;-69
2022/07/01 15:55:32;;;;;;;0.52;0.40;;;22.90;96.00;;;;;;4899808;29;20217;-70
2022/07/01 15:57:59;;;;;;;1.05;0.30;;;23.00;95.80;;;;;;4896023;29;20878;-69
2022/07/01 16:00:27;;;;;;;2.38;0.30;;;23.00;96.10;;;;;;4899619;29;20328;-72
2022/07/01 16:02:54;;;;;;;1.33;0.20;;;23.00;95.80;;;;;;4899300;29;20218;-71
2022/07/01 16:05:21;;;;;;;0.73;0.35;;;23.10;96.70;;;;;;4899566;29;20218;-70
2022/07/01 16:07:54;;;;;;;0.80;0.30;;;23.40;96.50;;;;;;4898508;29;20235;-72
2022/07/01 16:10:30;;;;;;;2.20;0.47;;;23.50;95.80;;;;;;4898764;29;20218;-69
2022/07/01 16:12:59;;;;;;;0.52;0.30;;;23.30;95.60;;;;;;4898385;29;20297;-69
2022/07/01 16:15:28;;;;;;;0.50;0.32;;;23.20;96.50;;;;;;4898482;29;20210;-69
2022/07/01 16:17:58;;;;;;;0.68;0.30;;;23.20;97.00;;;;;;4898769;29;20262;-69
2022/07/01 16:20:26;;;;;;;1.15;0.20;;;23.00;96.30;;;;;;4898897;29;20242;-71
2022/07/01 16:22:55;;;;;;;0.98;0.30;;;22.90;96.70;;;;;;4898781;29;20575;-70
2022/07/01 16:25:23;;;;;;;1.10;0.40;;;22.80;96.90;;;;;;4899035;29;20215;-69
2022/07/01 16:27:51;;;;;;;1.95;0.68;;;22.60;97.00;;;;;;4898680;29;20233;-71
2022/07/01 16:30:19;;;;;;;1.80;0.30;;;22.30;96.40;;;;;;4898545;29;20305;-70
2022/07/01 16:32:49;;;;;;;3.33;0.40;;;22.10;97.30;;;;;;4898395;29;20756;-69
2022/07/01 16:35:16;;;;;;;1.77;0.20;;;22.00;97.40;;;;;;4898401;29;20689;-70
2022/07/01 16:37:49;;;;;;;1.27;0.40;;;22.00;98.10;;;;;;4898089;29;20237;-69
2022/07/01 16:40:25;;;;;;;0.50;0.30;;;22.10;98.20;;;;;;4898507;29;20244;-68
2022/07/01 16:42:52;;;;;;;0.75;0.30;;;22.30;97.10;;;;;;4897433;29;20216;-68
2022/07/01 16:45:28;;;;;;;0.30;0.20;;;22.40;96.90;;;;;;4898076;29;20215;-68
2022/07/01 16:47:58;;;;;;;0.75;0.30;;;22.50;97.50;;;;;;4898048;29;20234;-69
2022/07/01 16:50:25;;;;;;;0.43;0.30;;;22.50;96.60;;;;;;4898244;29;20240;-69
2022/07/01 16:52:54;;;;;;;2.15;0.40;;;22.40;96.00;;;;;;4898525;29;20206;-68
2022/07/01 16:55:28;;;;;;;0.80;0.40;;;22.20;96.00;;;;;;4897003;29;20576;-68
2022/07/01 16:58:03;;;;;;;0.77;0.30;;;22.30;97.00;;;;;;4887617;29;20226;-69
2022/07/01 17:00:32;;;;;;;0.45;0.22;;;22.20;97.30;;;;;;4884438;29;20242;-70
2022/07/01 17:03:01;;;;;;;1.08;0.30;;;22.30;97.20;;;;;;4890570;29;20577;-71
2022/07/01 17:05:30;;;;;;;1.85;0.30;;;22.30;97.10;;;;;;4894180;29;20218;-71
2022/07/01 17:08:00;;;;;;;0.30;0.20;;;22.10;97.00;;;;;;4897099;29;20226;-70
2022/07/01 17:10:28;;;;;;;0.60;0.30;;;22.00;96.20;;;;;;4887075;29;20228;-70
2022/07/01 17:12:55;;;;;;;0.40;0.25;;;22.00;96.90;;;;;;4892229;29;20211;-69
2022/07/01 17:15:22;;;;;;;0.90;0.20;;;21.90;96.20;;;;;;4895419;29;20220;-70
2022/07/01 17:17:51;;;;;;;0.70;0.30;;;21.80;96.40;;;;;;4893222;29;20720;-67
2022/07/01 17:20:19;;;;;;;2.58;0.40;;;21.80;96.60;;;;;;4891351;29;20234;-67
2022/07/01 17:22:52;;;;;;;0.68;0.40;;;21.80;96.80;;;;;;4883514;29;20235;-69
2022/07/01 17:25:26;;;;;;;0.52;0.30;;;21.80;96.10;;;;;;4895234;29;20634;-70
2022/07/01 17:28:12;;;;;;;1.10;0.30;;;21.80;97.10;;;;;;4889376;29;20235;-69
2022/07/01 17:30:44;;;;;;;4.25;0.40;;;21.90;97.20;;;;;;4885292;29;20322;-70
2022/07/01 17:33:15;;;;;;;3.00;0.40;;;21.90;96.60;;;;;;4885683;29;20206;-69
2022/07/01 17:35:44;;;;;;;0.47;0.30;;;21.90;96.80;;;;;;4889232;29;20220;-70
2022/07/01 17:38:14;;;;;;;0.82;0.30;;;21.90;96.80;;;;;;4889261;29;20210;-69
2022/07/01 17:40:46;;;;;;;0.95;0.47;;;22.00;97.00;;;;;;4890188;29;20306;-69
2022/07/01 17:43:17;;;;;;;1.48;0.20;;;22.10;96.80;;;;;;4888056;29;20207;-69
2022/07/01 17:45:46;;;;;;;0.35;0.20;;;22.00;96.70;;;;;;4889932;29;20578;-68
2022/07/01 17:48:16;;;;;;;1.58;0.35;;;21.90;96.40;;;;;;4884135;29;20211;-69
2022/07/01 17:50:45;;;;;;;0.55;0.20;;;21.90;96.10;;;;;;4890612;29;20219;-72
2022/07/01 17:53:12;;;;;;;2.67;0.40;;;21.90;96.70;;;;;;4891034;29;20210;-69
2022/07/01 17:55:40;;;;;;;0.68;0.32;;;21.90;97.40;;;;;;4891912;29;20221;-68
2022/07/01 17:58:07;;;;;;;1.50;0.40;;;22.10;97.70;;;;;;4884683;29;20262;-69
2022/07/01 18:00:35;;;;;;;0.70;0.32;;;21.90;97.80;;;;;;4888745;29;20235;-69
2022/07/01 18:03:03;;;;;;;0.47;0.30;;;22.00;97.90;;;;;;4891089;29;20217;-71
2022/07/01 18:05:32;;;;;;;0.63;0.40;;;21.80;97.80;;;;;;4889687;29;20214;-70
2022/07/01 18:08:00;;;;;;;0.93;0.30;;;21.60;98.10;;;;;;4892576;29;20617;-70
2022/07/01 18:10:37;;;;;;;2.05;0.60;;;21.40;98.10;;;;;;4890636;29;20206;-71
2022/07/01 18:13:04;;;;;;;1.25;0.40;;;21.30;98.90;;;;;;4886573;29;20582;-70
2022/07/01 18:15:36;;;;;;;0.30;0.30;;;21.20;99.30;;;;;;4894450;29;20217;-69
2022/07/01 18:18:06;;;;;;;0.40;0.30;;;21.20;99.30;;;;;;4892723;29;20460;-70
2022/07/01 18:20:42;;;;;;;0.70;0.40;;;21.20;98.70;;;;;;4891728;29;20250;-70
2022/07/01 18:23:14;;;;;;;0.63;0.38;;;21.20;98.60;;;;;;4885384;29;20421;-70
2022/07/01 18:25:42;;;;;;;0.43;0.30;;;21.20;98.70;;;;;;4889968;29;20215;-69
2022/07/01 18:28:13;;;;;;;0.80;0.40;;;21.30;98.80;;;;;;4885890;29;20207;-69
2022/07/01 18:30:42;;;;;;;1.02;0.40;;;21.30;98.70;;;;;;4890720;29;20218;-69
2022/07/01 18:33:12;;;;;;;1.27;0.50;;;21.00;98.70;;;;;;4891889;29;20234;-69
2022/07/01 18:35:41;;;;;;;1.45;0.40;;;20.90;99.10;;;;;;4893056;29;20221;-69
2022/07/01 18:38:09;;;;;;;1.00;0.30;;;20.80;99.50;;;;;;4889670;29;20214;-70
2022/07/01 18:40:37;;;;;;;1.42;0.57;;;20.70;98.80;;;;;;4892112;29;20717;-69
2022/07/01 18:43:06;;;;;;;1.98;0.50;;;20.70;99.50;;;;;;4892152;29;20693;-69
2022/07/01 18:45:34;;;;;;;1.65;0.40;;;20.60;98.80;;;;;;4893518;29;20210;-70
2022/07/01 18:48:01;;;;;;;2.05;0.50;;;20.50;99.20;;;;;;4890492;29;20726;-71
2022/07/01 18:50:29;;;;;;;1.30;0.38;;;20.50;99.20;;;;;;4894722;29;20290;-69
2022/07/01 18:52:58;;;;;;;2.95;0.50;;;20.40;98.70;;;;;;4891695;29;20566;-70
2022/07/01 18:55:25;;;;;;;0.70;0.40;;;20.40;98.80;;;;;;4893155;29;20305;-70
2022/07/01 18:57:52;;;;;;;0.93;0.32;;;20.50;99.10;;;;;;4889864;29;20660;-70
2022/07/01 19:00:24;;;;;;;3.03;0.40;;;20.50;99.50;;;;;;4890186;29;20238;-69
2022/07/01 19:02:51;;;;;;;1.95;0.50;;;20.70;99.80;;;;;;4887442;29;20302;-69
2022/07/01 19:05:19;;;;;;;1.77;0.30;;;20.80;99.70;;;;;;4893971;29;20782;-70
2022/07/01 19:07:46;;;;;;;2.05;0.57;;;20.80;98.90;;;;;;4891795;29;20317;-69
2022/07/01 19:10:15;;;;;;;0.88;0.50;;;20.90;99.30;;;;;;4895514;29;20217;-69
2022/07/01 19:12:42;;;;;;;1.92;0.40;;;20.80;98.80;;;;;;4886557;29;20282;-69
2022/07/01 19:15:10;;;;;;;1.38;0.43;;;20.80;99.30;;;;;;4898736;29;20207;-69
2022/07/01 19:17:37;;;;;;;0.90;0.50;;;20.80;98.90;;;;;;4893098;29;20231;-69
2022/07/01 19:20:05;;;;;;;1.08;0.40;;;20.80;99.00;;;;;;4891163;29;20234;-69
2022/07/01 19:22:32;;;;;;;1.15;0.40;;;20.80;99.60;;;;;;4887449;29;20215;-69
2022/07/01 19:24:59;;;;;;;1.33;0.32;;;20.80;99.20;;;;;;4898972;29;20216;-69
2022/07/01 19:27:27;;;;;;;0.80;0.30;;;20.80;99.90;;;;;;4896621;29;20326;-69
2022/07/01 19:29:54;;;;;;;0.82;0.40;;;20.60;99.70;;;;;;4891633;29;20211;-68
2022/07/01 19:32:21;;;;;;;3.08;0.30;;;20.60;99.40;;;;;;4896071;29;20310;-69
2022/07/01 19:34:48;;;;;;;1.20;0.55;;;20.50;99.90;;;;;;4892216;29;20215;-69
2022/07/01 19:37:15;;;;;;;1.27;0.30;;;20.40;99.80;;;;;;4894515;29;20248;-69
2022/07/01 19:39:42;;;;;;;0.70;0.40;;;20.50;99.90;;;;;;4885643;29;20214;-68
2022/07/01 19:42:09;;;;;;;0.88;0.40;;;20.50;99.90;;;;;;4896440;29;20222;-69
2022/07/01 19:44:37;;;;;;;0.52;0.40;;;20.40;99.90;;;;;;4890023;29;20207;-69
2022/07/01 19:47:05;;;;;;;1.73;0.70;;;20.40;99.90;;;;;;4883348;29;20234;-71
2022/07/01 19:49:32;;;;;;;2.45;0.40;;;20.40;99.90;;;;;;4888377;29;20213;-71
2022/07/01 19:51:59;;;;;;;0.60;0.40;;;20.40;99.90;;;;;;4887835;29;20218;-70
2022/07/01 19:54:28;;;;;;;2.05;0.40;;;20.40;99.90;;;;;;4887436;29;20306;-71
2022/07/01 19:56:55;;;;;;;0.50;0.40;;;20.30;99.90;;;;;;4892644;29;20231;-68
2022/07/01 19:59:23;;;;;;;1.60;0.43;;;20.20;99.90;;;;;;4885022;29;20218;-71
2022/07/01 20:01:52;;;;;;;1.75;0.32;;;20.20;99.90;;;;;;4886519;29;20239;-68
2022/07/01 20:04:20;;;;;;;2.65;0.47;;;20.10;99.90;;;;;;4883656;29;20289;-68
2022/07/01 20:06:47;;;;;;;0.80;0.30;;;20.10;99.90;;;;;;4894200;29;20239;-71
2022/07/01 20:09:15;;;;;;;0.95;0.30;;;20.10;99.90;;;;;;4897254;29;20207;-68
2022/07/01 20:11:42;;;;;;;0.70;0.40;;;20.00;99.90;;;;;;4891805;29;20217;-68
2022/07/01 20:14:09;;;;;;;0.45;0.40;;;19.90;99.90;;;;;;4891674;29;20217;-72
2022/07/01 20:16:36;;;;;;;2.47;0.40;;;20.00;99.90;;;;;;4885058;29;20270;-68
2022/07/01 20:19:04;;;;;;;1.83;0.60;;;19.90;99.90;;;;;;4888586;29;20210;-70
2022/07/01 20:21:31;;;;;;;0.60;0.40;;;19.90;99.90;;;;;;4893737;29;20235;-70
2022/07/01 20:23:58;;;;;;;1.73;0.60;;;19.90;99.90;;;;;;4891196;29;20266;-71
2022/07/01 20:26:25;;;;;;;1.63;0.50;;;19.80;99.90;;;;;;4883784;29;20310;-69
2022/07/01 20:28:52;;;;;;;1.50;1.02;;;19.80;99.90;;;;;;4897076;29;20234;-72
2022/07/01 20:31:19;;;;;;;1.52;0.40;;;19.80;99.90;;;;;;4888900;29;20215;-71
2022/07/01 20:33:46;;;;;;;1.20;0.40;;;19.80;99.90;;;;;;4886267;29;20211;-68
2022/07/01 20:36:14;;;;;;;3.38;0.50;;;19.80;99.90;;;;;;4888903;29;20234;-69